createdAt,value
2018-12-27T00:00:55.131Z,101882.86
2018-12-27T00:03:27.195Z,101881.08
2018-12-27T00:05:58.882Z,101877.16
2018-12-27T00:08:30.805Z,101871.48
2018-12-27T00:11:02.903Z,101865.84
2018-12-27T00:13:34.590Z,101859.38
2018-12-27T00:16:06.228Z,101861.13
2018-12-27T00:18:37.923Z,101861.19
2018-12-27T00:21:10.333Z,101860.00
2018-12-27T00:23:42.271Z,101858.25
2018-12-27T00:26:14.762Z,101862.52
2018-12-27T00:28:46.753Z,101868.55
2018-12-27T00:31:18.782Z,101870.64
2018-12-27T00:33:50.788Z,101879.67
2018-12-27T00:36:22.907Z,101885.28
2018-12-27T00:38:54.932Z,101876.59
2018-12-27T00:41:27.020Z,101874.84
2018-12-27T00:44:02.894Z,101873.97
2018-12-27T00:46:34.887Z,101871.73
2018-12-27T00:49:07.233Z,101864.77
2018-12-27T00:51:39.325Z,101869.91
2018-12-27T00:54:11.340Z,101869.48
2018-12-27T00:56:44.276Z,101860.34
2018-12-27T00:59:17.805Z,101862.72
2018-12-27T01:01:50.617Z,101862.60
2018-12-27T01:04:22.987Z,101851.75
2018-12-27T01:06:55.067Z,101853.47
2018-12-27T01:09:27.037Z,101849.97
2018-12-27T01:11:59.078Z,101846.00
2018-12-27T01:14:31.055Z,101845.97
2018-12-27T01:17:04.187Z,101849.47
2018-12-27T01:19:36.180Z,101841.33
2018-12-27T01:22:08.599Z,101842.73
2018-12-27T01:24:40.555Z,101842.73
2018-12-27T01:27:12.590Z,101835.39
2018-12-27T01:29:46.005Z,101837.97
2018-12-27T01:32:18.884Z,101843.91
2018-12-27T01:34:50.937Z,101842.12
2018-12-27T01:37:22.897Z,101842.92
2018-12-27T01:39:54.861Z,101838.55
2018-12-27T01:42:26.815Z,101842.89
2018-12-27T01:44:58.986Z,101844.18
2018-12-27T01:47:31.203Z,101843.72
2018-12-27T01:50:03.555Z,101839.87
2018-12-27T01:52:35.569Z,101840.83
2018-12-27T01:55:07.819Z,101837.82
2018-12-27T01:57:40.320Z,101834.78
2018-12-27T02:00:12.443Z,101832.53
2018-12-27T02:02:44.519Z,101840.59
2018-12-27T02:05:18.379Z,101831.88
2018-12-27T02:07:50.329Z,101831.46
2018-12-27T02:10:22.537Z,101822.83
2018-12-27T02:12:54.500Z,101823.70
2018-12-27T02:15:26.810Z,101821.91
2018-12-27T02:17:58.816Z,101819.66
2018-12-27T02:20:31.705Z,101823.55
2018-12-27T02:23:03.716Z,101821.79
2018-12-27T02:25:35.633Z,101819.55
2018-12-27T02:28:07.614Z,101825.09
2018-12-27T02:30:39.634Z,101824.59
2018-12-27T02:33:11.705Z,101815.99
2018-12-27T02:35:44.425Z,101818.08
2018-12-27T02:38:16.355Z,101811.16
2018-12-27T02:40:48.312Z,101808.53
2018-12-27T02:43:22.350Z,101808.53
2018-12-27T02:45:54.320Z,101813.71
2018-12-27T02:48:26.388Z,101808.53
2018-12-27T02:50:58.982Z,101802.06
2018-12-27T02:53:31.013Z,101806.40
2018-12-27T02:56:03.501Z,101803.81
2018-12-27T02:58:35.677Z,101802.91
2018-12-27T03:01:07.748Z,101797.69
2018-12-27T03:03:44.041Z,101803.73
2018-12-27T03:06:13.631Z,101805.86
2018-12-27T03:08:46.099Z,101806.70
2018-12-27T03:11:19.941Z,101803.28
2018-12-27T03:13:51.946Z,101797.61
2018-12-27T03:16:23.958Z,101798.91
2018-12-27T03:18:55.925Z,101792.84
2018-12-27T03:21:27.895Z,101792.39
2018-12-27T03:24:00.491Z,101785.52
2018-12-27T03:26:32.482Z,101776.50
2018-12-27T03:29:04.431Z,101778.67
2018-12-27T03:31:36.460Z,101782.51
2018-12-27T03:34:08.463Z,101773.50
2018-12-27T03:36:40.409Z,101765.70
2018-12-27T03:39:12.998Z,101762.66
2018-12-27T03:41:44.976Z,101772.54
2018-12-27T03:44:18.245Z,101774.70
2018-12-27T03:46:50.160Z,101768.28
2018-12-27T03:49:22.128Z,101764.90
2018-12-27T03:51:54.083Z,101760.65
2018-12-27T03:54:26.760Z,101753.38
2018-12-27T03:56:59.921Z,101755.13
2018-12-27T03:59:32.059Z,101754.67
2018-12-27T04:02:04.245Z,101746.47
2018-12-27T04:04:40.953Z,101744.67
2018-12-27T04:07:12.933Z,101736.84
2018-12-27T04:09:47.622Z,101729.88
2018-12-27T04:12:19.865Z,101722.98
2018-12-27T04:14:51.851Z,101723.03
2018-12-27T04:17:23.533Z,101720.52
2018-12-27T04:19:55.184Z,101725.77
2018-12-27T04:22:26.830Z,101723.60
2018-12-27T04:24:58.448Z,101723.98
2018-12-27T04:27:30.786Z,101720.94
2018-12-27T04:30:02.440Z,101730.06
2018-12-27T04:32:34.660Z,101725.77
2018-12-27T04:35:06.455Z,101734.06
2018-12-27T04:37:38.346Z,101726.83
2018-12-27T04:40:10.038Z,101733.80
2018-12-27T04:42:43.994Z,101727.36
2018-12-27T04:45:15.650Z,101723.55
2018-12-27T04:47:47.376Z,101728.37
2018-12-27T04:50:19.100Z,101714.15
2018-12-27T04:52:50.742Z,101714.98
2018-12-27T04:55:22.369Z,101718.83
2018-12-27T04:57:55.332Z,101708.48
2018-12-27T05:00:27.017Z,101709.39
2018-12-27T05:02:58.646Z,101712.02
2018-12-27T05:05:30.244Z,101715.02
2018-12-27T05:08:02.075Z,101712.44
2018-12-27T05:10:33.694Z,101712.44
2018-12-27T05:13:07.153Z,101712.44
2018-12-27T05:15:38.791Z,101707.75
2018-12-27T05:18:11.898Z,101704.74
2018-12-27T05:20:43.531Z,101712.16
2018-12-27T05:23:15.187Z,101709.95
2018-12-27T05:25:46.837Z,101711.67
2018-12-27T05:28:19.322Z,101724.15
2018-12-27T05:30:50.958Z,101726.67
2018-12-27T05:33:22.762Z,101730.52
2018-12-27T05:35:54.412Z,101734.36
2018-12-27T05:38:26.051Z,101748.97
2018-12-27T05:40:57.665Z,101744.67
2018-12-27T05:43:29.296Z,101742.58
2018-12-27T05:46:01.750Z,101751.17
2018-12-27T05:48:33.668Z,101746.45
2018-12-27T05:51:05.631Z,101749.47
2018-12-27T05:53:37.344Z,101754.22
2018-12-27T05:56:09.870Z,101753.80
2018-12-27T05:58:42.128Z,101745.20
2018-12-27T06:01:15.975Z,101757.75
2018-12-27T06:03:47.652Z,101752.58
2018-12-27T06:06:19.648Z,101743.56
2018-12-27T06:08:51.421Z,101737.12
2018-12-27T06:11:23.165Z,101736.32
2018-12-27T06:13:55.149Z,101734.61
2018-12-27T06:16:27.402Z,101733.73
2018-12-27T06:19:00.254Z,101732.89
2018-12-27T06:21:31.889Z,101732.51
2018-12-27T06:24:03.682Z,101732.51
2018-12-27T06:26:35.325Z,101734.64
2018-12-27T06:29:06.956Z,101726.45
2018-12-27T06:31:39.244Z,101721.28
2018-12-27T06:34:10.872Z,101717.44
2018-12-27T06:36:42.539Z,101720.06
2018-12-27T06:39:15.602Z,101721.80
2018-12-27T06:41:47.254Z,101724.00
2018-12-27T06:44:18.900Z,101738.20
2018-12-27T06:46:51.329Z,101730.44
2018-12-27T06:49:22.945Z,101726.98
2018-12-27T06:51:54.587Z,101723.09
2018-12-27T06:54:26.425Z,101722.26
2018-12-27T06:56:58.219Z,101724.84
2018-12-27T06:59:30.369Z,101728.24
2018-12-27T07:02:02.710Z,101723.91
2018-12-27T07:04:34.350Z,101720.86
2018-12-27T07:07:07.647Z,101724.71
2018-12-27T07:09:39.290Z,101730.80
2018-12-27T07:12:11.056Z,101728.20
2018-12-27T07:14:42.722Z,101735.48
2018-12-27T07:17:14.366Z,101730.73
2018-12-27T07:19:48.301Z,101732.47
2018-12-27T07:22:20.087Z,101732.51
2018-12-27T07:24:51.725Z,101723.88
2018-12-27T07:27:23.704Z,101726.08
2018-12-27T07:29:55.749Z,101729.12
2018-12-27T07:32:27.546Z,101732.19
2018-12-27T07:34:59.867Z,101729.95
2018-12-27T07:37:31.807Z,101727.78
2018-12-27T07:40:03.529Z,101728.20
2018-12-27T07:42:35.552Z,101728.20
2018-12-27T07:45:07.636Z,101726.49
2018-12-27T07:47:39.759Z,101721.70
2018-12-27T07:50:12.063Z,101718.20
2018-12-27T07:52:43.925Z,101719.92
2018-12-27T07:55:15.926Z,101723.84
2018-12-27T07:57:47.589Z,101729.95
2018-12-27T08:00:20.822Z,101723.48
2018-12-27T08:02:53.670Z,101728.24
2018-12-27T08:05:26.099Z,101724.84
2018-12-27T08:07:58.047Z,101723.20
2018-12-27T08:10:29.824Z,101720.19
2018-12-27T08:13:01.474Z,101720.71
2018-12-27T08:15:34.791Z,101715.14
2018-12-27T08:18:06.421Z,101717.73
2018-12-27T08:20:39.191Z,101713.88
2018-12-27T08:23:10.863Z,101715.11
2018-12-27T08:25:42.562Z,101717.67
2018-12-27T08:28:14.201Z,101725.44
2018-12-27T08:30:47.070Z,101724.66
2018-12-27T08:33:18.841Z,101719.06
2018-12-27T08:35:50.578Z,101721.26
2018-12-27T08:38:23.172Z,101718.70
2018-12-27T08:40:54.828Z,101719.09
2018-12-27T08:43:26.889Z,101723.01
2018-12-27T08:45:58.532Z,101722.10
2018-12-27T08:48:30.259Z,101725.56
2018-12-27T08:51:01.960Z,101722.98
2018-12-27T08:53:33.589Z,101724.69
2018-12-27T08:56:06.066Z,101726.47
2018-12-27T08:58:38.136Z,101727.77
2018-12-27T09:01:09.823Z,101730.84
2018-12-27T09:03:41.505Z,101732.17
2018-12-27T09:06:13.399Z,101728.70
2018-12-27T09:08:45.046Z,101739.42
2018-12-27T09:11:16.725Z,101735.08
2018-12-27T09:13:49.191Z,101724.69
2018-12-27T09:16:20.881Z,101732.00
2018-12-27T09:18:52.523Z,101730.70
2018-12-27T09:21:24.329Z,101727.25
2018-12-27T09:23:56.341Z,101722.10
2018-12-27T09:26:28.041Z,101723.01
2018-12-27T09:29:00.482Z,101729.48
2018-12-27T09:31:32.103Z,101730.77
2018-12-27T09:34:03.832Z,101727.34
2018-12-27T09:36:36.475Z,101732.13
2018-12-27T09:39:08.782Z,101727.05
2018-12-27T09:41:40.430Z,101727.50
2018-12-27T09:44:12.748Z,101727.53
2018-12-27T09:46:44.676Z,101724.52
2018-12-27T09:49:16.450Z,101720.64
2018-12-27T09:51:48.114Z,101723.65
2018-12-27T09:54:20.051Z,101724.46
2018-12-27T09:56:51.789Z,101721.87
2018-12-27T09:59:24.561Z,101721.06
2018-12-27T10:01:56.327Z,101723.68
2018-12-27T10:04:28.038Z,101721.57
2018-12-27T10:06:59.916Z,101710.79
2018-12-27T10:09:31.588Z,101708.17
2018-12-27T10:12:03.278Z,101706.93
2018-12-27T10:14:34.915Z,101707.84
2018-12-27T10:17:07.465Z,101711.78
2018-12-27T10:19:39.167Z,101701.45
2018-12-27T10:22:10.890Z,101703.16
2018-12-27T10:24:42.844Z,101711.45
2018-12-27T10:27:14.559Z,101708.37
2018-12-27T10:29:46.252Z,101708.70
2018-12-27T10:32:19.987Z,101704.85
2018-12-27T10:34:51.662Z,101707.89
2018-12-27T10:37:23.857Z,101704.40
2018-12-27T10:39:55.760Z,101702.23
2018-12-27T10:42:27.444Z,101697.08
2018-12-27T10:44:59.593Z,101687.20
2018-12-27T10:47:32.023Z,101688.07
2018-12-27T10:50:04.179Z,101682.02
2018-12-27T10:52:35.876Z,101684.61
2018-12-27T10:55:08.218Z,101677.69
2018-12-27T10:57:41.573Z,101675.94
2018-12-27T11:00:13.867Z,101679.79
2018-12-27T11:02:46.786Z,101676.27
2018-12-27T11:05:19.598Z,101672.81
2018-12-27T11:07:51.410Z,101669.41
2018-12-27T11:10:23.092Z,101657.77
2018-12-27T11:12:54.865Z,101650.52
2018-12-27T11:15:27.008Z,101650.59
2018-12-27T11:17:59.336Z,101642.89
2018-12-27T11:20:31.141Z,101632.55
2018-12-27T11:23:05.038Z,101632.18
2018-12-27T11:25:36.774Z,101631.78
2018-12-27T11:28:08.531Z,101628.77
2018-12-27T11:30:41.750Z,101625.27
2018-12-27T11:33:14.065Z,101631.28
2018-12-27T11:35:45.858Z,101626.84
2018-12-27T11:38:17.493Z,101623.28
2018-12-27T11:40:49.264Z,101627.98
2018-12-27T11:43:21.421Z,101621.93
2018-12-27T11:45:53.171Z,101621.56
2018-12-27T11:48:24.899Z,101616.48
2018-12-27T11:50:56.982Z,101621.27
2018-12-27T11:53:29.013Z,101607.89
2018-12-27T11:56:02.267Z,101605.67
2018-12-27T11:58:35.296Z,101605.22
2018-12-27T12:01:07.183Z,101598.75
2018-12-27T12:03:38.868Z,101593.59
2018-12-27T12:06:11.043Z,101592.77
2018-12-27T12:08:42.804Z,101588.80
2018-12-27T12:11:14.708Z,101585.69
2018-12-27T12:13:46.447Z,101580.89
2018-12-27T12:16:18.254Z,101583.05
2018-12-27T12:18:50.124Z,101577.50
2018-12-27T12:21:24.677Z,101570.25
2018-12-27T12:23:56.415Z,101569.84
2018-12-27T12:26:28.511Z,101570.79
2018-12-27T12:29:00.334Z,101563.08
2018-12-27T12:31:32.259Z,101560.94
2018-12-27T12:34:04.497Z,101571.34
2018-12-27T12:36:37.036Z,101565.27
2018-12-27T12:39:09.543Z,101562.20
2018-12-27T12:41:41.314Z,101566.11
2018-12-27T12:44:13.629Z,101559.23
2018-12-27T12:46:45.297Z,101561.88
2018-12-27T12:49:17.206Z,101565.33
2018-12-27T12:51:49.669Z,101563.63
2018-12-27T12:54:21.401Z,101554.15
2018-12-27T12:56:53.088Z,101555.52
2018-12-27T12:59:24.985Z,101549.89
2018-12-27T13:01:56.727Z,101553.83
2018-12-27T13:04:28.680Z,101546.48
2018-12-27T13:07:01.206Z,101544.28
2018-12-27T13:09:33.345Z,101543.85
2018-12-27T13:12:05.128Z,101549.04
2018-12-27T13:14:36.914Z,101546.45
2018-12-27T13:17:08.909Z,101554.17
2018-12-27T13:19:40.660Z,101547.24
2018-12-27T13:22:13.092Z,101547.27
2018-12-27T13:24:44.769Z,101543.85
2018-12-27T13:27:16.442Z,101545.16
2018-12-27T13:29:48.115Z,101543.02
2018-12-27T13:32:20.127Z,101546.91
2018-12-27T13:34:52.363Z,101542.17
2018-12-27T13:37:24.474Z,101538.69
2018-12-27T13:39:57.062Z,101534.42
2018-12-27T13:42:28.972Z,101532.27
2018-12-27T13:45:01.878Z,101531.86
2018-12-27T13:47:33.697Z,101535.34
2018-12-27T13:50:06.900Z,101532.77
2018-12-27T13:52:39.260Z,101527.14
2018-12-27T13:55:11.440Z,101523.67
2018-12-27T13:57:43.078Z,101528.44
2018-12-27T14:00:15.427Z,101528.02
2018-12-27T14:02:48.912Z,101526.77
2018-12-27T14:05:22.805Z,101522.89
2018-12-27T14:07:56.257Z,101522.03
2018-12-27T14:10:28.572Z,101512.50
2018-12-27T14:13:00.275Z,101514.22
2018-12-27T14:15:32.538Z,101517.25
2018-12-27T14:18:04.288Z,101517.31
2018-12-27T14:20:36.070Z,101516.02
2018-12-27T14:23:07.806Z,101517.36
2018-12-27T14:25:39.647Z,101521.66
2018-12-27T14:28:11.429Z,101516.00
2018-12-27T14:30:44.509Z,101513.42
2018-12-27T14:33:16.231Z,101518.16
2018-12-27T14:35:48.379Z,101521.19
2018-12-27T14:38:20.162Z,101519.87
2018-12-27T14:40:51.824Z,101524.61
2018-12-27T14:43:23.663Z,101518.54
2018-12-27T14:45:55.313Z,101516.36
2018-12-27T14:48:27.699Z,101518.51
2018-12-27T14:50:59.398Z,101515.91
2018-12-27T14:53:32.191Z,101518.94
2018-12-27T14:56:03.903Z,101521.52
2018-12-27T14:58:35.824Z,101524.94
2018-12-27T15:01:08.597Z,101514.98
2018-12-27T15:03:43.203Z,101523.16
2018-12-27T15:06:19.409Z,101520.11
2018-12-27T15:08:52.574Z,101523.94
2018-12-27T15:11:25.335Z,101526.45
2018-12-27T15:13:57.268Z,101528.14
2018-12-27T15:16:28.930Z,101534.56
2018-12-27T15:19:01.019Z,101531.06
2018-12-27T15:21:32.692Z,101537.11
2018-12-27T15:24:04.518Z,101535.36
2018-12-27T15:26:36.299Z,101531.90
2018-12-27T15:29:08.130Z,101534.08
2018-12-27T15:31:39.843Z,101542.33
2018-12-27T15:34:13.114Z,101542.77
2018-12-27T15:36:44.850Z,101537.20
2018-12-27T15:39:16.587Z,101535.49
2018-12-27T15:41:48.270Z,101534.63
2018-12-27T15:44:20.891Z,101535.48
2018-12-27T15:46:52.582Z,101535.48
2018-12-27T15:49:25.177Z,101532.47
2018-12-27T15:51:58.673Z,101536.34
2018-12-27T15:54:30.519Z,101531.13
2018-12-27T15:57:02.198Z,101532.41
2018-12-27T15:59:34.091Z,101521.19
2018-12-27T16:02:06.195Z,101523.36
2018-12-27T16:04:37.891Z,101528.59
2018-12-27T16:07:09.713Z,101531.17
2018-12-27T16:09:41.606Z,101529.05
2018-12-27T16:12:14.862Z,101531.22
2018-12-27T16:14:46.599Z,101523.02
2018-12-27T16:17:18.393Z,101534.68
2018-12-27T16:19:50.108Z,101532.13
2018-12-27T16:22:22.445Z,101526.51
2018-12-27T16:24:54.434Z,101535.16
2018-12-27T16:27:27.357Z,101529.95
2018-12-27T16:30:17.177Z,101535.14
2018-12-27T16:33:06.809Z,101530.77
2018-12-27T16:35:56.230Z,101522.97
2018-12-27T16:38:46.797Z,101518.22
2018-12-27T16:41:20.580Z,101523.41
2018-12-27T16:43:52.511Z,101516.91
2018-12-27T16:46:24.213Z,101520.36
2018-12-27T16:48:57.770Z,101521.23
2018-12-27T16:51:29.555Z,101519.93
2018-12-27T16:54:01.321Z,101524.69
2018-12-27T16:56:34.645Z,101527.28
2018-12-27T16:59:09.949Z,101524.72
2018-12-27T17:01:43.219Z,101522.99
2018-12-27T17:04:16.514Z,101525.59
2018-12-27T17:06:49.784Z,101524.73
2018-12-27T17:09:23.516Z,101530.34
2018-12-27T17:11:56.990Z,101524.24
2018-12-27T17:14:30.415Z,101530.70
2018-12-27T17:17:06.038Z,101533.70
2018-12-27T17:19:39.347Z,101533.28
2018-12-27T17:22:12.584Z,101537.59
2018-12-27T17:24:45.934Z,101533.66
2018-12-27T17:27:19.714Z,101540.58
2018-12-27T17:30:09.247Z,101537.55
2018-12-27T17:32:58.918Z,101543.58
2018-12-27T17:35:48.262Z,101540.06
2018-12-27T17:38:37.680Z,101537.87
2018-12-27T17:41:26.903Z,101551.66
2018-12-27T17:44:16.240Z,101540.83
2018-12-27T17:47:05.723Z,101545.59
2018-12-27T17:49:55.697Z,101537.82
2018-12-27T17:52:44.843Z,101543.83
2018-12-27T17:55:34.846Z,101536.48
2018-12-27T17:58:24.762Z,101542.08
2018-12-27T18:01:14.422Z,101538.60
2018-12-27T18:04:03.548Z,101534.29
2018-12-27T18:06:53.000Z,101539.52
2018-12-27T18:09:42.226Z,101538.66
2018-12-27T18:12:31.699Z,101538.23
2018-12-27T18:15:21.114Z,101534.36
2018-12-27T18:18:10.710Z,101544.22
2018-12-27T18:20:59.833Z,101543.70
2018-12-27T18:23:49.262Z,101546.67
2018-12-27T18:26:38.532Z,101553.97
2018-12-27T18:29:28.384Z,101550.98
2018-12-27T18:32:18.023Z,101554.86
2018-12-27T18:35:08.362Z,101553.13
2018-12-27T18:37:58.125Z,101554.84
2018-12-27T18:40:47.822Z,101564.33
2018-12-27T18:43:37.349Z,101560.02
2018-12-27T18:46:26.825Z,101559.59
2018-12-27T18:49:20.639Z,101557.91
2018-12-27T18:52:07.807Z,101564.83
2018-12-27T18:54:57.831Z,101563.53
2018-12-27T18:57:47.786Z,101568.29
2018-12-27T19:00:37.676Z,101564.40
2018-12-27T19:03:27.527Z,101559.67
2018-12-27T19:06:17.608Z,101574.39
2018-12-27T19:09:08.953Z,101569.63
2018-12-27T19:12:52.536Z,101571.80
2018-12-27T19:15:50.975Z,101574.36
2018-12-27T19:18:48.052Z,101565.69
2018-12-27T19:21:56.423Z,101572.59
2018-12-27T19:24:28.352Z,101562.26
2018-12-27T19:27:01.106Z,101567.49
2018-12-27T19:29:33.004Z,101558.84
2018-12-27T19:32:04.795Z,101561.04
2018-12-27T19:34:36.656Z,101561.06
2018-12-27T19:37:08.649Z,101553.73
2018-12-27T19:39:40.610Z,101560.68
2018-12-27T19:42:12.780Z,101551.66
2018-12-27T19:44:44.482Z,101561.55
2018-12-27T19:47:16.370Z,101566.32
2018-12-27T19:49:51.826Z,101559.44
2018-12-27T19:52:25.563Z,101558.58
2018-12-27T19:54:57.651Z,101560.75
2018-12-27T19:57:30.502Z,101559.91
2018-12-27T20:00:04.043Z,101560.38
2018-12-27T20:02:38.713Z,101558.26
2018-12-27T20:05:15.187Z,101558.23
2018-12-27T20:07:47.877Z,101558.26
2018-12-27T20:10:19.711Z,101558.26
2018-12-27T20:12:52.248Z,101555.24
2018-12-27T20:15:24.385Z,101563.02
2018-12-27T20:17:59.365Z,101562.58
2018-12-27T20:20:32.980Z,101563.86
2018-12-27T20:23:06.807Z,101576.79
2018-12-27T20:25:43.765Z,101575.03
2018-12-27T20:28:16.148Z,101571.96
2018-12-27T20:30:48.184Z,101568.08
2018-12-27T20:33:23.365Z,101562.47
2018-12-27T20:35:56.060Z,101565.09
2018-12-27T20:38:28.440Z,101563.38
2018-12-27T20:41:02.704Z,101571.59
2018-12-27T20:43:36.212Z,101582.35
2018-12-27T20:46:10.297Z,101575.01
2018-12-27T20:48:43.672Z,101587.05
2018-12-27T20:51:18.282Z,101586.66
2018-12-27T20:54:00.834Z,101580.66
2018-12-27T20:56:32.921Z,101587.16
2018-12-27T20:59:05.352Z,101578.52
2018-12-27T21:01:40.029Z,101569.89
2018-12-27T21:04:11.892Z,101567.28
2018-12-27T21:06:44.399Z,101567.23
2018-12-27T21:09:18.197Z,101567.66
2018-12-27T21:11:50.000Z,101568.50
2018-12-27T21:14:23.015Z,101567.66
2018-12-27T21:16:56.777Z,101568.53
2018-12-27T21:19:36.774Z,101573.72
2018-12-27T21:22:10.800Z,101572.41
2018-12-27T21:24:46.283Z,101574.58
2018-12-27T21:27:18.276Z,101575.92
2018-12-27T21:29:50.138Z,101567.27
2018-12-27T21:32:22.548Z,101567.73
2018-12-27T21:34:54.492Z,101577.17
2018-12-27T21:37:26.393Z,101579.77
2018-12-27T21:39:58.795Z,101575.00
2018-12-27T21:42:31.545Z,101575.45
2018-12-27T21:45:04.584Z,101569.45
2018-12-27T21:47:38.089Z,101577.22
2018-12-27T21:50:10.260Z,101567.72
2018-12-27T21:52:42.112Z,101587.61
2018-12-27T21:55:15.215Z,101566.00
2018-12-27T21:57:46.955Z,101573.36
2018-12-27T22:00:19.709Z,101558.23
2018-12-27T22:02:51.437Z,101560.82
2018-12-27T22:05:23.337Z,101555.66
2018-12-27T22:07:55.791Z,101559.58
2018-12-27T22:10:31.415Z,101548.33
2018-12-27T22:13:04.537Z,101551.39
2018-12-27T22:15:38.235Z,101544.50
2018-12-27T22:18:11.685Z,101536.72
2018-12-27T22:20:43.452Z,101535.41
2018-12-27T22:23:19.248Z,101540.61
2018-12-27T22:25:52.963Z,101542.35
2018-12-27T22:28:26.232Z,101541.47
2018-12-27T22:30:58.119Z,101536.73
2018-12-27T22:33:31.734Z,101539.38
2018-12-27T22:36:03.504Z,101536.34
2018-12-27T22:38:35.897Z,101543.27
2018-12-27T22:41:07.630Z,101544.09
2018-12-27T22:43:40.194Z,101544.52
2018-12-27T22:46:13.067Z,101541.45
2018-12-27T22:48:48.339Z,101537.12
2018-12-27T22:51:22.505Z,101539.71
2018-12-27T22:53:57.804Z,101542.30
2018-12-27T22:56:29.987Z,101535.80
2018-12-27T22:59:08.413Z,101537.55
2018-12-27T23:01:44.628Z,101533.21
2018-12-27T23:04:19.867Z,101525.42
2018-12-27T23:06:54.678Z,101532.81
2018-12-27T23:09:28.994Z,101537.55
2018-12-27T23:12:00.862Z,101531.06
2018-12-27T23:14:36.497Z,101527.16
2018-12-27T23:17:10.417Z,101535.77
2018-12-27T23:19:42.363Z,101531.87
2018-12-27T23:22:14.424Z,101532.33
2018-12-27T23:24:47.929Z,101525.84
2018-12-27T23:27:19.823Z,101537.12
2018-12-27T23:29:55.025Z,101532.36
2018-12-27T23:32:28.201Z,101530.64
2018-12-27T23:35:00.148Z,101531.94
2018-12-27T23:37:32.177Z,101534.95
2018-12-27T23:40:04.947Z,101528.50
2018-12-27T23:42:37.699Z,101518.11
2018-12-27T23:45:10.176Z,101522.91
2018-12-27T23:47:42.996Z,101525.92
2018-12-27T23:50:14.725Z,101527.64
2018-12-27T23:52:46.960Z,101531.55
2018-12-27T23:55:18.868Z,101527.67
2018-12-27T23:57:52.082Z,101525.97
